Glenview, IL (60025)

2:56 AM CDT on October 31, 2014 (GMT -0500)
Village Of Niles | Change Station
CLOSE
Current Station
Personal Weather Station
Location: Niles, IL
Elevation: 636 ft
Nearby Weather Stations

Elev 636 ft 42.04 °N, 87.81 °W | Updated 8 seconds ago

Overcast
Overcast
44.8 °F
Feels Like 42 °F
N
5.8
Wind Variable Wind from NNW
Gusts 9.8 mph

Today
High -- | Low -- °F
--% Chance of Precip.
Yesterday
High -- | Low -- °F
Precip. -- in
7:22 AM 5:46 PM
First Quarter, 52% visible
Pressure 30.06 in
Visibility 10.0 miles
Clouds Mostly Cloudy 3400 ft
Overcast 4200 ft
Windchill 42 °F
Dew Point 36 °F
Humidity 70%
Rainfall 0.00 in
Snow Depth Not available.
UV 0.0 out of 12
Pollen .20 out of 12
Air Quality Not available.
Flu Activity Not available.
METAR KPWK 310752Z AUTO 33010G22KT 10SM BKN034 OVC042 07/01 A3005 RMK AO2 PK WND 32026/0719 RAB21E36 SLP177 P0000 T00720006

More Conditions Fewer Conditions

Pressure 30.06 in
Visibility 10.0 miles
Clouds Mostly Cloudy 3400 ft
Overcast 4200 ft
Windchill 42 °F
Dew Point 36 °F
Humidity 70%
Rainfall 0.00 in
Snow Depth Not available.
UV 0.0 out of 12
Pollen .20 out of 12
Air Quality Not available.
Flu Activity Not available.
METAR KPWK 310752Z AUTO 33010G22KT 10SM BKN034 OVC042 07/01 A3005 RMK AO2 PK WND 32026/0719 RAB21E36 SLP177 P0000 T00720006

More Conditions Fewer Conditions

10-Day Weather Forecast

Almanac

Astronomy

Oct. 31, 2014 Rise Set
Actual Time
Civil Twilight
Nautical Twilight
Astronomical Twilight
Moon
Length of Visible Light
Length of Day
Tomorrow will be .
, % of the Moon is Illuminated

Today's Extremes

State Highs State Lows

Community

WunderPhotos

Upload Photos

1,766,573 photos uploaded!

WunderBlogs® & News

Nearby

Air Quality

  Air Quality AQ Index Pollutant
Not available.

Snow Depth

Station Depth Elevation

Earthquake Activity

City Distance Mag. Time & Date
Minimum magnitude displayed is 2.5.

Coastal Water Temperatures

Place Temperature

Nearby Weather Stations